sensor_id;sensor_type;location;lat;lon;timestamp;P1;durP1;ratioP1;P2;durP2;ratioP2
9496;SDS011;4786;51.270;4.456;2023-04-24T00:00:55;26.57;;;17.73;;
9496;SDS011;4786;51.270;4.456;2023-04-24T00:03:25;22.60;;;17.57;;
9496;SDS011;4786;51.270;4.456;2023-04-24T00:05:52;20.40;;;16.80;;
9496;SDS011;4786;51.270;4.456;2023-04-24T00:08:21;18.13;;;16.10;;
9496;SDS011;4786;51.270;4.456;2023-04-24T00:10:48;22.33;;;18.07;;
9496;SDS011;4786;51.270;4.456;2023-04-24T00:13:14;18.47;;;16.57;;
9496;SDS011;4786;51.270;4.456;2023-04-24T00:15:40;21.47;;;17.27;;
9496;SDS011;4786;51.270;4.456;2023-04-24T00:18:06;21.00;;;16.83;;
9496;SDS011;4786;51.270;4.456;2023-04-24T00:20:32;20.30;;;17.23;;
9496;SDS011;4786;51.270;4.456;2023-04-24T00:23:00;23.00;;;17.47;;
9496;SDS011;4786;51.270;4.456;2023-04-24T00:25:26;19.30;;;17.13;;
9496;SDS011;4786;51.270;4.456;2023-04-24T00:27:52;21.20;;;16.07;;
9496;SDS011;4786;51.270;4.456;2023-04-24T00:30:18;17.73;;;15.70;;
9496;SDS011;4786;51.270;4.456;2023-04-24T00:32:44;18.50;;;15.60;;
9496;SDS011;4786;51.270;4.456;2023-04-24T00:35:10;18.30;;;15.93;;
9496;SDS011;4786;51.270;4.456;2023-04-24T00:37:37;18.27;;;14.57;;
9496;SDS011;4786;51.270;4.456;2023-04-24T00:40:02;18.63;;;15.03;;
9496;SDS011;4786;51.270;4.456;2023-04-24T00:42:29;15.43;;;13.73;;
9496;SDS011;4786;51.270;4.456;2023-04-24T00:44:56;15.47;;;13.30;;
9496;SDS011;4786;51.270;4.456;2023-04-24T00:47:22;19.37;;;13.27;;
9496;SDS011;4786;51.270;4.456;2023-04-24T00:49:48;14.53;;;13.10;;
9496;SDS011;4786;51.270;4.456;2023-04-24T00:52:14;14.03;;;12.10;;
9496;SDS011;4786;51.270;4.456;2023-04-24T00:54:43;14.10;;;12.17;;
9496;SDS011;4786;51.270;4.456;2023-04-24T00:57:10;14.40;;;12.13;;
9496;SDS011;4786;51.270;4.456;2023-04-24T00:59:36;13.43;;;11.77;;
9496;SDS011;4786;51.270;4.456;2023-04-24T01:02:03;14.63;;;12.23;;
9496;SDS011;4786;51.270;4.456;2023-04-24T01:04:29;13.00;;;11.63;;
9496;SDS011;4786;51.270;4.456;2023-04-24T01:06:55;14.37;;;12.07;;
9496;SDS011;4786;51.270;4.456;2023-04-24T01:09:22;12.50;;;11.30;;
9496;SDS011;4786;51.270;4.456;2023-04-24T01:11:49;14.40;;;11.90;;
9496;SDS011;4786;51.270;4.456;2023-04-24T01:14:15;18.13;;;13.07;;
9496;SDS011;4786;51.270;4.456;2023-04-24T01:16:40;16.40;;;14.10;;
9496;SDS011;4786;51.270;4.456;2023-04-24T01:19:06;17.20;;;13.97;;
9496;SDS011;4786;51.270;4.456;2023-04-24T01:21:34;15.90;;;14.40;;
9496;SDS011;4786;51.270;4.456;2023-04-24T01:24:02;19.57;;;16.33;;
9496;SDS011;4786;51.270;4.456;2023-04-24T01:26:28;17.77;;;15.90;;
9496;SDS011;4786;51.270;4.456;2023-04-24T01:28:54;18.60;;;16.57;;
9496;SDS011;4786;51.270;4.456;2023-04-24T01:31:20;18.00;;;16.20;;
9496;SDS011;4786;51.270;4.456;2023-04-24T01:33:46;18.37;;;16.63;;
9496;SDS011;4786;51.270;4.456;2023-04-24T01:36:13;19.67;;;17.43;;
9496;SDS011;4786;51.270;4.456;2023-04-24T01:38:39;17.57;;;15.83;;
9496;SDS011;4786;51.270;4.456;2023-04-24T01:41:05;18.17;;;15.90;;
9496;SDS011;4786;51.270;4.456;2023-04-24T01:43:31;16.70;;;15.20;;
9496;SDS011;4786;51.270;4.456;2023-04-24T01:45:57;16.40;;;14.80;;
9496;SDS011;4786;51.270;4.456;2023-04-24T01:48:23;15.80;;;14.17;;
9496;SDS011;4786;51.270;4.456;2023-04-24T01:50:49;16.93;;;14.83;;
9496;SDS011;4786;51.270;4.456;2023-04-24T01:53:15;15.73;;;14.00;;
9496;SDS011;4786;51.270;4.456;2023-04-24T01:55:41;15.90;;;13.23;;
9496;SDS011;4786;51.270;4.456;2023-04-24T01:58:07;14.83;;;12.87;;
9496;SDS011;4786;51.270;4.456;2023-04-24T02:00:33;13.90;;;12.37;;
9496;SDS011;4786;51.270;4.456;2023-04-24T02:02:59;13.80;;;12.47;;
9496;SDS011;4786;51.270;4.456;2023-04-24T02:05:27;13.17;;;11.63;;
9496;SDS011;4786;51.270;4.456;2023-04-24T02:07:53;13.43;;;12.03;;
9496;SDS011;4786;51.270;4.456;2023-04-24T02:10:19;13.37;;;11.50;;
9496;SDS011;4786;51.270;4.456;2023-04-24T02:12:45;12.43;;;11.10;;
9496;SDS011;4786;51.270;4.456;2023-04-24T02:15:11;12.03;;;10.80;;
9496;SDS011;4786;51.270;4.456;2023-04-24T02:17:37;11.87;;;10.67;;
9496;SDS011;4786;51.270;4.456;2023-04-24T02:20:03;11.87;;;10.60;;
9496;SDS011;4786;51.270;4.456;2023-04-24T02:22:31;11.50;;;10.30;;
9496;SDS011;4786;51.270;4.456;2023-04-24T02:24:56;11.27;;;10.17;;
9496;SDS011;4786;51.270;4.456;2023-04-24T02:27:22;11.93;;;10.73;;
9496;SDS011;4786;51.270;4.456;2023-04-24T02:29:48;11.20;;;10.07;;
9496;SDS011;4786;51.270;4.456;2023-04-24T02:32:15;13.17;;;10.00;;
9496;SDS011;4786;51.270;4.456;2023-04-24T02:34:41;12.67;;;11.40;;
9496;SDS011;4786;51.270;4.456;2023-04-24T02:37:06;13.33;;;12.03;;
9496;SDS011;4786;51.270;4.456;2023-04-24T02:39:32;14.93;;;13.43;;
9496;SDS011;4786;51.270;4.456;2023-04-24T02:41:58;15.73;;;11.90;;
9496;SDS011;4786;51.270;4.456;2023-04-24T02:44:25;13.40;;;12.10;;
9496;SDS011;4786;51.270;4.456;2023-04-24T02:46:50;12.60;;;11.43;;
9496;SDS011;4786;51.270;4.456;2023-04-24T02:49:17;13.17;;;11.87;;
9496;SDS011;4786;51.270;4.456;2023-04-24T02:51:43;15.00;;;13.37;;
9496;SDS011;4786;51.270;4.456;2023-04-24T02:54:09;15.97;;;13.40;;
9496;SDS011;4786;51.270;4.456;2023-04-24T02:56:35;14.77;;;13.37;;
9496;SDS011;4786;51.270;4.456;2023-04-24T02:59:01;14.30;;;13.10;;
9496;SDS011;4786;51.270;4.456;2023-04-24T03:01:26;15.03;;;13.43;;
9496;SDS011;4786;51.270;4.456;2023-04-24T03:03:52;15.50;;;13.97;;
9496;SDS011;4786;51.270;4.456;2023-04-24T03:06:18;15.43;;;14.13;;
9496;SDS011;4786;51.270;4.456;2023-04-24T03:08:43;16.10;;;14.50;;
9496;SDS011;4786;51.270;4.456;2023-04-24T03:11:09;15.80;;;14.20;;
9496;SDS011;4786;51.270;4.456;2023-04-24T03:13:35;15.57;;;14.17;;
9496;SDS011;4786;51.270;4.456;2023-04-24T03:16:01;16.07;;;14.50;;
9496;SDS011;4786;51.270;4.456;2023-04-24T03:18:27;16.60;;;15.00;;
9496;SDS011;4786;51.270;4.456;2023-04-24T03:20:53;16.30;;;14.80;;
9496;SDS011;4786;51.270;4.456;2023-04-24T03:23:19;16.33;;;14.80;;
9496;SDS011;4786;51.270;4.456;2023-04-24T03:25:45;15.50;;;14.10;;
9496;SDS011;4786;51.270;4.456;2023-04-24T03:28:13;15.50;;;13.30;;
9496;SDS011;4786;51.270;4.456;2023-04-24T03:30:38;14.53;;;13.17;;
9496;SDS011;4786;51.270;4.456;2023-04-24T03:33:04;10.77;;;9.63;;
9496;SDS011;4786;51.270;4.456;2023-04-24T03:35:30;9.33;;;8.40;;
9496;SDS011;4786;51.270;4.456;2023-04-24T03:37:56;11.07;;;7.03;;
9496;SDS011;4786;51.270;4.456;2023-04-24T03:40:22;6.87;;;5.53;;
9496;SDS011;4786;51.270;4.456;2023-04-24T03:42:48;6.30;;;4.77;;
9496;SDS011;4786;51.270;4.456;2023-04-24T03:45:14;6.07;;;3.80;;
9496;SDS011;4786;51.270;4.456;2023-04-24T03:47:40;5.53;;;4.20;;
9496;SDS011;4786;51.270;4.456;2023-04-24T03:50:06;9.50;;;4.00;;
9496;SDS011;4786;51.270;4.456;2023-04-24T03:52:32;6.70;;;3.97;;
9496;SDS011;4786;51.270;4.456;2023-04-24T03:54:58;8.37;;;4.40;;
9496;SDS011;4786;51.270;4.456;2023-04-24T03:57:23;6.83;;;4.37;;
9496;SDS011;4786;51.270;4.456;2023-04-24T03:59:49;5.03;;;3.97;;
9496;SDS011;4786;51.270;4.456;2023-04-24T04:02:15;5.60;;;4.03;;
9496;SDS011;4786;51.270;4.456;2023-04-24T04:04:41;5.77;;;4.20;;
9496;SDS011;4786;51.270;4.456;2023-04-24T04:07:07;6.77;;;4.43;;
9496;SDS011;4786;51.270;4.456;2023-04-24T04:09:33;9.27;;;4.70;;
9496;SDS011;4786;51.270;4.456;2023-04-24T04:11:59;7.97;;;4.40;;
9496;SDS011;4786;51.270;4.456;2023-04-24T04:14:25;7.50;;;4.63;;
9496;SDS011;4786;51.270;4.456;2023-04-24T04:16:51;6.80;;;4.70;;
9496;SDS011;4786;51.270;4.456;2023-04-24T04:19:17;6.03;;;4.83;;
9496;SDS011;4786;51.270;4.456;2023-04-24T04:21:43;6.40;;;4.70;;
9496;SDS011;4786;51.270;4.456;2023-04-24T04:24:10;6.80;;;5.27;;
9496;SDS011;4786;51.270;4.456;2023-04-24T04:26:37;7.43;;;4.90;;
9496;SDS011;4786;51.270;4.456;2023-04-24T04:29:03;7.83;;;5.30;;
9496;SDS011;4786;51.270;4.456;2023-04-24T04:31:29;7.23;;;5.63;;
9496;SDS011;4786;51.270;4.456;2023-04-24T04:33:56;6.40;;;5.27;;
9496;SDS011;4786;51.270;4.456;2023-04-24T04:36:21;8.73;;;5.70;;
9496;SDS011;4786;51.270;4.456;2023-04-24T04:38:48;7.93;;;5.60;;
9496;SDS011;4786;51.270;4.456;2023-04-24T04:41:15;8.20;;;6.17;;
9496;SDS011;4786;51.270;4.456;2023-04-24T04:43:43;7.27;;;6.50;;
9496;SDS011;4786;51.270;4.456;2023-04-24T04:46:09;11.17;;;7.07;;
9496;SDS011;4786;51.270;4.456;2023-04-24T04:48:36;9.13;;;7.30;;
9496;SDS011;4786;51.270;4.456;2023-04-24T04:51:02;10.10;;;7.80;;
9496;SDS011;4786;51.270;4.456;2023-04-24T04:53:28;10.23;;;8.63;;
9496;SDS011;4786;51.270;4.456;2023-04-24T04:55:54;13.73;;;8.87;;
9496;SDS011;4786;51.270;4.456;2023-04-24T04:58:20;11.50;;;8.63;;
9496;SDS011;4786;51.270;4.456;2023-04-24T05:00:46;14.33;;;9.10;;
9496;SDS011;4786;51.270;4.456;2023-04-24T05:03:11;12.10;;;9.57;;
9496;SDS011;4786;51.270;4.456;2023-04-24T05:05:37;14.93;;;10.30;;
9496;SDS011;4786;51.270;4.456;2023-04-24T05:08:06;13.27;;;9.50;;
9496;SDS011;4786;51.270;4.456;2023-04-24T05:10:32;13.97;;;10.47;;
9496;SDS011;4786;51.270;4.456;2023-04-24T05:12:58;14.47;;;10.27;;
9496;SDS011;4786;51.270;4.456;2023-04-24T05:15:25;13.70;;;10.63;;
9496;SDS011;4786;51.270;4.456;2023-04-24T05:17:50;14.77;;;9.73;;
9496;SDS011;4786;51.270;4.456;2023-04-24T05:20:16;14.47;;;11.00;;
9496;SDS011;4786;51.270;4.456;2023-04-24T05:22:42;15.83;;;11.37;;
9496;SDS011;4786;51.270;4.456;2023-04-24T05:25:08;14.63;;;10.47;;
9496;SDS011;4786;51.270;4.456;2023-04-24T05:27:34;13.40;;;10.07;;
9496;SDS011;4786;51.270;4.456;2023-04-24T05:30:00;11.83;;;9.73;;
9496;SDS011;4786;51.270;4.456;2023-04-24T05:32:26;13.20;;;9.77;;
9496;SDS011;4786;51.270;4.456;2023-04-24T05:34:52;13.27;;;9.10;;
9496;SDS011;4786;51.270;4.456;2023-04-24T05:37:17;12.90;;;8.60;;
9496;SDS011;4786;51.270;4.456;2023-04-24T05:39:43;10.57;;;7.93;;
9496;SDS011;4786;51.270;4.456;2023-04-24T05:42:09;10.47;;;7.57;;
9496;SDS011;4786;51.270;4.456;2023-04-24T05:44:34;9.47;;;7.27;;
9496;SDS011;4786;51.270;4.456;2023-04-24T05:47:00;10.40;;;7.87;;
9496;SDS011;4786;51.270;4.456;2023-04-24T05:49:26;11.47;;;7.23;;
9496;SDS011;4786;51.270;4.456;2023-04-24T05:51:52;12.13;;;8.23;;
9496;SDS011;4786;51.270;4.456;2023-04-24T05:54:18;10.60;;;7.60;;
9496;SDS011;4786;51.270;4.456;2023-04-24T05:56:44;12.50;;;7.20;;
9496;SDS011;4786;51.270;4.456;2023-04-24T05:59:10;10.37;;;7.37;;
9496;SDS011;4786;51.270;4.456;2023-04-24T06:01:36;13.63;;;7.77;;
9496;SDS011;4786;51.270;4.456;2023-04-24T06:04:02;13.13;;;7.40;;
9496;SDS011;4786;51.270;4.456;2023-04-24T06:06:29;14.30;;;7.27;;
9496;SDS011;4786;51.270;4.456;2023-04-24T06:08:56;8.10;;;6.57;;
9496;SDS011;4786;51.270;4.456;2023-04-24T06:11:22;8.93;;;6.73;;
9496;SDS011;4786;51.270;4.456;2023-04-24T06:13:48;10.80;;;7.80;;
9496;SDS011;4786;51.270;4.456;2023-04-24T06:16:14;13.43;;;8.60;;
9496;SDS011;4786;51.270;4.456;2023-04-24T06:18:40;12.20;;;8.60;;
9496;SDS011;4786;51.270;4.456;2023-04-24T06:21:06;12.20;;;9.40;;
9496;SDS011;4786;51.270;4.456;2023-04-24T06:23:31;12.67;;;9.37;;
9496;SDS011;4786;51.270;4.456;2023-04-24T06:25:58;13.73;;;9.80;;
9496;SDS011;4786;51.270;4.456;2023-04-24T06:28:24;15.37;;;10.13;;
9496;SDS011;4786;51.270;4.456;2023-04-24T06:30:50;14.27;;;10.00;;
9496;SDS011;4786;51.270;4.456;2023-04-24T06:33:16;13.80;;;10.17;;
9496;SDS011;4786;51.270;4.456;2023-04-24T06:35:42;19.57;;;10.43;;
9496;SDS011;4786;51.270;4.456;2023-04-24T06:38:08;14.43;;;9.17;;
9496;SDS011;4786;51.270;4.456;2023-04-24T06:40:33;15.67;;;8.70;;
9496;SDS011;4786;51.270;4.456;2023-04-24T06:42:59;14.33;;;9.33;;
9496;SDS011;4786;51.270;4.456;2023-04-24T06:45:27;14.10;;;8.60;;
9496;SDS011;4786;51.270;4.456;2023-04-24T06:47:54;12.13;;;8.43;;
9496;SDS011;4786;51.270;4.456;2023-04-24T06:50:19;17.53;;;9.73;;
9496;SDS011;4786;51.270;4.456;2023-04-24T06:52:45;18.13;;;11.33;;
9496;SDS011;4786;51.270;4.456;2023-04-24T06:55:11;22.63;;;12.03;;
9496;SDS011;4786;51.270;4.456;2023-04-24T06:57:37;20.67;;;8.17;;
9496;SDS011;4786;51.270;4.456;2023-04-24T07:00:04;15.37;;;6.97;;
9496;SDS011;4786;51.270;4.456;2023-04-24T07:02:31;13.07;;;6.53;;
9496;SDS011;4786;51.270;4.456;2023-04-24T07:05:00;15.13;;;7.63;;
9496;SDS011;4786;51.270;4.456;2023-04-24T07:07:26;12.03;;;6.93;;
9496;SDS011;4786;51.270;4.456;2023-04-24T07:09:52;14.93;;;6.70;;
9496;SDS011;4786;51.270;4.456;2023-04-24T07:12:19;14.40;;;5.80;;
9496;SDS011;4786;51.270;4.456;2023-04-24T07:14:50;12.07;;;5.73;;
9496;SDS011;4786;51.270;4.456;2023-04-24T07:17:16;17.13;;;6.20;;
9496;SDS011;4786;51.270;4.456;2023-04-24T07:19:46;13.03;;;5.33;;
9496;SDS011;4786;51.270;4.456;2023-04-24T07:22:11;11.03;;;4.93;;
9496;SDS011;4786;51.270;4.456;2023-04-24T07:24:41;13.17;;;5.03;;
9496;SDS011;4786;51.270;4.456;2023-04-24T07:27:08;9.90;;;4.60;;
9496;SDS011;4786;51.270;4.456;2023-04-24T07:29:34;16.70;;;5.43;;
9496;SDS011;4786;51.270;4.456;2023-04-24T07:32:03;13.07;;;5.13;;
9496;SDS011;4786;51.270;4.456;2023-04-24T07:34:31;14.17;;;4.60;;
9496;SDS011;4786;51.270;4.456;2023-04-24T07:36:56;11.07;;;4.80;;
9496;SDS011;4786;51.270;4.456;2023-04-24T07:39:22;9.50;;;4.50;;
9496;SDS011;4786;51.270;4.456;2023-04-24T07:41:48;11.37;;;4.40;;
9496;SDS011;4786;51.270;4.456;2023-04-24T07:44:14;14.40;;;4.67;;
9496;SDS011;4786;51.270;4.456;2023-04-24T07:46:40;11.83;;;4.40;;
9496;SDS011;4786;51.270;4.456;2023-04-24T07:49:06;11.70;;;4.10;;
9496;SDS011;4786;51.270;4.456;2023-04-24T07:51:31;13.30;;;3.97;;
9496;SDS011;4786;51.270;4.456;2023-04-24T07:54:03;9.80;;;3.80;;
9496;SDS011;4786;51.270;4.456;2023-04-24T07:56:31;13.67;;;4.93;;
9496;SDS011;4786;51.270;4.456;2023-04-24T07:58:58;15.33;;;4.50;;
9496;SDS011;4786;51.270;4.456;2023-04-24T08:01:23;12.53;;;4.43;;
9496;SDS011;4786;51.270;4.456;2023-04-24T08:03:50;12.60;;;3.73;;
9496;SDS011;4786;51.270;4.456;2023-04-24T08:06:16;10.73;;;3.70;;
9496;SDS011;4786;51.270;4.456;2023-04-24T08:08:42;13.97;;;4.57;;
9496;SDS011;4786;51.270;4.456;2023-04-24T08:11:08;10.77;;;3.87;;
9496;SDS011;4786;51.270;4.456;2023-04-24T08:13:34;11.10;;;3.50;;
9496;SDS011;4786;51.270;4.456;2023-04-24T08:16:03;12.87;;;4.00;;
9496;SDS011;4786;51.270;4.456;2023-04-24T08:18:29;11.37;;;4.33;;
9496;SDS011;4786;51.270;4.456;2023-04-24T08:20:54;11.50;;;4.27;;
9496;SDS011;4786;51.270;4.456;2023-04-24T08:23:23;13.23;;;4.33;;
9496;SDS011;4786;51.270;4.456;2023-04-24T08:25:49;12.97;;;4.30;;
9496;SDS011;4786;51.270;4.456;2023-04-24T08:28:14;14.20;;;4.50;;
9496;SDS011;4786;51.270;4.456;2023-04-24T08:30:45;12.80;;;4.30;;
9496;SDS011;4786;51.270;4.456;2023-04-24T08:33:11;14.10;;;4.50;;
9496;SDS011;4786;51.270;4.456;2023-04-24T08:35:37;12.60;;;4.53;;
9496;SDS011;4786;51.270;4.456;2023-04-24T08:38:03;10.60;;;4.07;;
9496;SDS011;4786;51.270;4.456;2023-04-24T08:40:30;10.73;;;4.37;;
9496;SDS011;4786;51.270;4.456;2023-04-24T08:42:59;9.67;;;3.53;;
9496;SDS011;4786;51.270;4.456;2023-04-24T08:45:26;9.30;;;3.83;;
9496;SDS011;4786;51.270;4.456;2023-04-24T08:47:54;11.70;;;4.43;;
9496;SDS011;4786;51.270;4.456;2023-04-24T08:50:20;10.60;;;3.97;;
9496;SDS011;4786;51.270;4.456;2023-04-24T08:52:48;10.63;;;3.70;;
9496;SDS011;4786;51.270;4.456;2023-04-24T08:55:15;9.27;;;3.83;;
9496;SDS011;4786;51.270;4.456;2023-04-24T08:57:44;11.13;;;3.83;;
9496;SDS011;4786;51.270;4.456;2023-04-24T09:00:11;11.23;;;4.00;;
9496;SDS011;4786;51.270;4.456;2023-04-24T09:02:39;9.40;;;3.50;;
9496;SDS011;4786;51.270;4.456;2023-04-24T09:05:08;13.07;;;4.13;;
9496;SDS011;4786;51.270;4.456;2023-04-24T09:07:35;9.33;;;3.60;;
9496;SDS011;4786;51.270;4.456;2023-04-24T09:10:06;12.87;;;3.47;;
9496;SDS011;4786;51.270;4.456;2023-04-24T09:12:33;8.70;;;3.07;;
9496;SDS011;4786;51.270;4.456;2023-04-24T09:15:02;7.40;;;3.27;;
9496;SDS011;4786;51.270;4.456;2023-04-24T09:17:30;9.73;;;3.00;;
9496;SDS011;4786;51.270;4.456;2023-04-24T09:19:58;7.00;;;2.87;;
9496;SDS011;4786;51.270;4.456;2023-04-24T09:22:25;7.07;;;3.00;;
9496;SDS011;4786;51.270;4.456;2023-04-24T09:25:05;8.43;;;2.70;;
9496;SDS011;4786;51.270;4.456;2023-04-24T09:27:33;8.57;;;3.30;;
9496;SDS011;4786;51.270;4.456;2023-04-24T09:29:59;7.73;;;2.97;;
9496;SDS011;4786;51.270;4.456;2023-04-24T09:32:25;7.73;;;3.00;;
9496;SDS011;4786;51.270;4.456;2023-04-24T09:37:37;7.40;;;2.70;;
9496;SDS011;4786;51.270;4.456;2023-04-24T09:42:37;5.93;;;2.70;;
9496;SDS011;4786;51.270;4.456;2023-04-24T09:45:04;9.73;;;3.17;;
9496;SDS011;4786;51.270;4.456;2023-04-24T09:47:38;8.67;;;2.67;;
9496;SDS011;4786;51.270;4.456;2023-04-24T09:50:12;8.10;;;2.50;;
9496;SDS011;4786;51.270;4.456;2023-04-24T09:52:39;7.63;;;2.63;;
9496;SDS011;4786;51.270;4.456;2023-04-24T09:55:26;4.90;;;2.37;;
9496;SDS011;4786;51.270;4.456;2023-04-24T10:00:26;6.77;;;2.10;;
9496;SDS011;4786;51.270;4.456;2023-04-24T10:02:56;7.63;;;2.50;;
9496;SDS011;4786;51.270;4.456;2023-04-24T10:05:27;6.10;;;2.30;;
9496;SDS011;4786;51.270;4.456;2023-04-24T10:07:59;7.20;;;2.30;;
9496;SDS011;4786;51.270;4.456;2023-04-24T10:10:26;7.20;;;2.30;;
9496;SDS011;4786;51.270;4.456;2023-04-24T10:12:53;7.63;;;2.40;;
9496;SDS011;4786;51.270;4.456;2023-04-24T10:15:23;5.30;;;2.37;;
9496;SDS011;4786;51.270;4.456;2023-04-24T10:17:51;6.57;;;2.60;;
9496;SDS011;4786;51.270;4.456;2023-04-24T10:20:23;8.23;;;2.67;;
9496;SDS011;4786;51.270;4.456;2023-04-24T10:22:51;6.30;;;2.47;;
9496;SDS011;4786;51.270;4.456;2023-04-24T10:25:21;6.53;;;2.10;;
9496;SDS011;4786;51.270;4.456;2023-04-24T10:27:49;4.87;;;2.00;;
9496;SDS011;4786;51.270;4.456;2023-04-24T10:30:17;4.27;;;2.20;;
9496;SDS011;4786;51.270;4.456;2023-04-24T10:32:43;7.93;;;2.23;;
9496;SDS011;4786;51.270;4.456;2023-04-24T10:35:10;4.30;;;2.20;;
9496;SDS011;4786;51.270;4.456;2023-04-24T10:40:31;6.47;;;2.10;;
9496;SDS011;4786;51.270;4.456;2023-04-24T10:42:59;7.10;;;1.83;;
9496;SDS011;4786;51.270;4.456;2023-04-24T10:45:27;4.67;;;2.00;;
9496;SDS011;4786;51.270;4.456;2023-04-24T10:47:59;5.10;;;2.57;;
9496;SDS011;4786;51.270;4.456;2023-04-24T10:51:13;6.07;;;2.20;;
9496;SDS011;4786;51.270;4.456;2023-04-24T10:53:25;5.73;;;2.30;;
9496;SDS011;4786;51.270;4.456;2023-04-24T10:56:06;3.97;;;1.93;;
9496;SDS011;4786;51.270;4.456;2023-04-24T11:01:08;2.53;;;1.50;;
9496;SDS011;4786;51.270;4.456;2023-04-24T11:03:36;4.67;;;1.90;;
9496;SDS011;4786;51.270;4.456;2023-04-24T11:06:03;3.33;;;1.93;;
9496;SDS011;4786;51.270;4.456;2023-04-24T11:08:31;5.67;;;1.83;;
9496;SDS011;4786;51.270;4.456;2023-04-24T11:11:17;2.30;;;1.47;;
9496;SDS011;4786;51.270;4.456;2023-04-24T11:16:30;5.73;;;1.53;;
9496;SDS011;4786;51.270;4.456;2023-04-24T11:19:07;3.73;;;1.80;;
9496;SDS011;4786;51.270;4.456;2023-04-24T11:21:43;4.00;;;1.80;;
9496;SDS011;4786;51.270;4.456;2023-04-24T11:24:27;3.20;;;1.57;;
9496;SDS011;4786;51.270;4.456;2023-04-24T11:29:41;4.77;;;1.97;;
9496;SDS011;4786;51.270;4.456;2023-04-24T11:32:17;6.13;;;2.10;;
9496;SDS011;4786;51.270;4.456;2023-04-24T11:34:51;2.40;;;1.60;;
9496;SDS011;4786;51.270;4.456;2023-04-24T11:37:19;5.17;;;1.60;;
9496;SDS011;4786;51.270;4.456;2023-04-24T11:39:44;5.57;;;1.90;;
9496;SDS011;4786;51.270;4.456;2023-04-24T11:42:12;6.63;;;1.80;;
9496;SDS011;4786;51.270;4.456;2023-04-24T11:44:42;3.40;;;1.40;;
9496;SDS011;4786;51.270;4.456;2023-04-24T11:47:14;2.97;;;1.67;;
9496;SDS011;4786;51.270;4.456;2023-04-24T11:49:41;4.80;;;1.87;;
9496;SDS011;4786;51.270;4.456;2023-04-24T11:52:07;3.97;;;2.00;;
9496;SDS011;4786;51.270;4.456;2023-04-24T11:54:33;5.60;;;2.00;;
9496;SDS011;4786;51.270;4.456;2023-04-24T11:56:59;4.70;;;1.83;;
9496;SDS011;4786;51.270;4.456;2023-04-24T11:59:30;5.93;;;1.80;;
9496;SDS011;4786;51.270;4.456;2023-04-24T12:02:01;5.37;;;1.73;;
9496;SDS011;4786;51.270;4.456;2023-04-24T12:04:27;8.60;;;2.37;;
9496;SDS011;4786;51.270;4.456;2023-04-24T12:07:08;5.07;;;1.73;;
9496;SDS011;4786;51.270;4.456;2023-04-24T12:09:41;3.80;;;1.70;;
9496;SDS011;4786;51.270;4.456;2023-04-24T12:12:07;5.10;;;1.90;;
9496;SDS011;4786;51.270;4.456;2023-04-24T12:17:17;6.27;;;1.90;;
9496;SDS011;4786;51.270;4.456;2023-04-24T12:19:48;4.30;;;1.87;;
9496;SDS011;4786;51.270;4.456;2023-04-24T12:22:15;3.43;;;1.73;;
9496;SDS011;4786;51.270;4.456;2023-04-24T12:27:30;2.70;;;1.70;;
9496;SDS011;4786;51.270;4.456;2023-04-24T12:30:00;5.20;;;1.77;;
9496;SDS011;4786;51.270;4.456;2023-04-24T12:32:30;4.83;;;1.50;;
9496;SDS011;4786;51.270;4.456;2023-04-24T12:34:56;4.30;;;1.70;;
9496;SDS011;4786;51.270;4.456;2023-04-24T12:37:25;3.17;;;1.47;;
9496;SDS011;4786;51.270;4.456;2023-04-24T12:40:07;6.20;;;1.93;;
9496;SDS011;4786;51.270;4.456;2023-04-24T12:42:44;5.90;;;1.80;;
9496;SDS011;4786;51.270;4.456;2023-04-24T12:45:14;3.73;;;1.73;;
9496;SDS011;4786;51.270;4.456;2023-04-24T12:47:43;2.90;;;1.50;;
9496;SDS011;4786;51.270;4.456;2023-04-24T12:50:11;3.10;;;1.90;;
9496;SDS011;4786;51.270;4.456;2023-04-24T12:52:39;3.33;;;1.60;;
9496;SDS011;4786;51.270;4.456;2023-04-24T12:55:08;4.53;;;2.00;;
9496;SDS011;4786;51.270;4.456;2023-04-24T12:57:38;2.93;;;1.63;;
9496;SDS011;4786;51.270;4.456;2023-04-24T13:00:05;3.33;;;1.50;;
9496;SDS011;4786;51.270;4.456;2023-04-24T13:02:33;4.13;;;1.70;;
9496;SDS011;4786;51.270;4.456;2023-04-24T13:04:59;2.50;;;1.60;;
9496;SDS011;4786;51.270;4.456;2023-04-24T13:07:26;2.67;;;1.50;;
9496;SDS011;4786;51.270;4.456;2023-04-24T13:12:22;3.03;;;1.93;;
9496;SDS011;4786;51.270;4.456;2023-04-24T13:14:48;3.50;;;1.77;;
9496;SDS011;4786;51.270;4.456;2023-04-24T13:17:14;3.60;;;2.00;;
9496;SDS011;4786;51.270;4.456;2023-04-24T13:19:41;6.03;;;2.07;;
9496;SDS011;4786;51.270;4.456;2023-04-24T13:22:09;2.97;;;2.17;;
9496;SDS011;4786;51.270;4.456;2023-04-24T13:24:38;4.00;;;2.03;;
9496;SDS011;4786;51.270;4.456;2023-04-24T13:27:06;3.83;;;1.83;;
9496;SDS011;4786;51.270;4.456;2023-04-24T13:29:32;3.73;;;1.83;;
9496;SDS011;4786;51.270;4.456;2023-04-24T13:31:57;4.90;;;1.57;;
9496;SDS011;4786;51.270;4.456;2023-04-24T13:34:23;3.07;;;1.50;;
9496;SDS011;4786;51.270;4.456;2023-04-24T13:36:54;2.97;;;1.30;;
9496;SDS011;4786;51.270;4.456;2023-04-24T13:39:25;2.33;;;1.70;;
9496;SDS011;4786;51.270;4.456;2023-04-24T13:41:51;2.93;;;1.50;;
9496;SDS011;4786;51.270;4.456;2023-04-24T13:44:20;5.07;;;1.73;;
9496;SDS011;4786;51.270;4.456;2023-04-24T13:46:50;3.13;;;1.63;;
9496;SDS011;4786;51.270;4.456;2023-04-24T13:49:19;1.83;;;1.60;;
9496;SDS011;4786;51.270;4.456;2023-04-24T13:51:46;4.00;;;1.63;;
9496;SDS011;4786;51.270;4.456;2023-04-24T13:54:12;3.90;;;1.73;;
9496;SDS011;4786;51.270;4.456;2023-04-24T13:56:41;4.53;;;1.63;;
9496;SDS011;4786;51.270;4.456;2023-04-24T13:59:07;3.77;;;1.50;;
9496;SDS011;4786;51.270;4.456;2023-04-24T14:01:33;4.03;;;1.90;;
9496;SDS011;4786;51.270;4.456;2023-04-24T14:03:59;6.23;;;1.70;;
9496;SDS011;4786;51.270;4.456;2023-04-24T14:06:28;4.60;;;1.70;;
9496;SDS011;4786;51.270;4.456;2023-04-24T14:08:54;4.07;;;1.83;;
9496;SDS011;4786;51.270;4.456;2023-04-24T14:11:20;3.53;;;1.87;;
9496;SDS011;4786;51.270;4.456;2023-04-24T14:13:46;3.70;;;1.90;;
9496;SDS011;4786;51.270;4.456;2023-04-24T14:16:11;3.13;;;1.93;;
9496;SDS011;4786;51.270;4.456;2023-04-24T14:18:37;4.30;;;2.00;;
9496;SDS011;4786;51.270;4.456;2023-04-24T14:21:05;2.37;;;1.40;;
9496;SDS011;4786;51.270;4.456;2023-04-24T14:23:31;2.73;;;1.70;;
9496;SDS011;4786;51.270;4.456;2023-04-24T14:25:57;3.20;;;1.70;;
9496;SDS011;4786;51.270;4.456;2023-04-24T14:28:24;5.50;;;2.50;;
9496;SDS011;4786;51.270;4.456;2023-04-24T14:30:51;7.57;;;2.50;;
9496;SDS011;4786;51.270;4.456;2023-04-24T14:33:17;5.83;;;2.67;;
9496;SDS011;4786;51.270;4.456;2023-04-24T14:35:43;4.80;;;2.70;;
9496;SDS011;4786;51.270;4.456;2023-04-24T14:38:09;7.63;;;2.87;;
9496;SDS011;4786;51.270;4.456;2023-04-24T14:40:35;5.07;;;2.63;;
9496;SDS011;4786;51.270;4.456;2023-04-24T14:43:03;5.73;;;3.37;;
9496;SDS011;4786;51.270;4.456;2023-04-24T14:45:29;7.93;;;3.40;;
9496;SDS011;4786;51.270;4.456;2023-04-24T14:47:56;11.57;;;5.23;;
9496;SDS011;4786;51.270;4.456;2023-04-24T14:50:23;6.87;;;3.90;;
9496;SDS011;4786;51.270;4.456;2023-04-24T14:52:53;3.37;;;2.70;;
9496;SDS011;4786;51.270;4.456;2023-04-24T14:55:24;6.00;;;3.37;;
9496;SDS011;4786;51.270;4.456;2023-04-24T14:57:53;6.53;;;3.20;;
9496;SDS011;4786;51.270;4.456;2023-04-24T15:00:20;7.53;;;3.33;;
9496;SDS011;4786;51.270;4.456;2023-04-24T15:02:48;5.23;;;3.03;;
9496;SDS011;4786;51.270;4.456;2023-04-24T15:05:13;7.50;;;3.27;;
9496;SDS011;4786;51.270;4.456;2023-04-24T15:07:39;7.17;;;3.27;;
9496;SDS011;4786;51.270;4.456;2023-04-24T15:10:06;6.33;;;3.57;;
9496;SDS011;4786;51.270;4.456;2023-04-24T15:12:35;9.93;;;3.47;;
9496;SDS011;4786;51.270;4.456;2023-04-24T15:15:01;7.10;;;3.57;;
9496;SDS011;4786;51.270;4.456;2023-04-24T15:17:27;5.00;;;3.47;;
9496;SDS011;4786;51.270;4.456;2023-04-24T15:19:53;6.57;;;3.30;;
9496;SDS011;4786;51.270;4.456;2023-04-24T15:22:19;6.97;;;3.87;;
9496;SDS011;4786;51.270;4.456;2023-04-24T15:24:45;6.83;;;3.73;;
9496;SDS011;4786;51.270;4.456;2023-04-24T15:27:12;6.47;;;2.97;;
9496;SDS011;4786;51.270;4.456;2023-04-24T15:29:37;5.93;;;3.10;;
9496;SDS011;4786;51.270;4.456;2023-04-24T15:32:04;5.60;;;3.00;;